Time;durP1;ratioP1;P1;durP2;ratioP2;P2;SDS_P1;SDS_P2;PMS_P1;PMS_P2;Temp;Humidity;BMP_temperature;BMP_pressure;BME280_temperature;BME280_humidity;BME280_pressure;Samples;Min_cycle;Max_cycle;Signal;HPM_P1;HPM_P2
2022/03/27 00:01:13;;;;;;;19.40;10.20;;;;;;;13.12;29.63;100462.77;117314;1185;23445;-47
2022/03/27 00:03:42;;;;;;;16.80;9.90;;;;;;;13.10;29.54;100465.97;117342;1185;21849;-48
2022/03/27 00:06:10;;;;;;;16.90;9.90;;;;;;;13.08;29.52;100469.19;117399;1184;22482;-59
2022/03/27 00:08:42;;;;;;;15.30;9.20;;;;;;;13.06;29.62;100464.11;117339;1184;21855;-59
2022/03/27 00:11:31;;;;;;;17.70;9.30;;;;;;;13.06;29.70;100461.13;117275;1184;22055;-48
2022/03/27 00:14:04;;;;;;;16.60;9.30;;;;;;;13.05;29.64;100458.86;117350;1185;23468;-48
2022/03/27 00:16:35;;;;;;;19.10;9.30;;;;;;;13.04;29.65;100460.11;117285;1185;21915;-48
2022/03/27 00:19:03;;;;;;;18.60;9.80;;;;;;;13.04;29.67;100456.05;117369;1184;24226;-49
2022/03/27 00:21:36;;;;;;;20.40;9.70;;;;;;;13.04;29.76;100447.09;117294;1185;23454;-59
2022/03/27 00:24:05;;;;;;;17.60;9.90;;;;;;;13.05;29.68;100447.41;117330;1185;22003;-58
2022/03/27 00:26:33;;;;;;;14.50;9.00;;;;;;;13.06;29.63;100444.05;117356;1185;21852;-49
2022/03/27 00:29:02;;;;;;;15.60;9.30;;;;;;;13.07;29.82;100440.84;117300;1186;21863;-52
2022/03/27 00:31:35;;;;;;;15.90;9.40;;;;;;;13.09;29.75;100445.39;117362;1184;22605;-48
2022/03/27 00:34:05;;;;;;;13.60;9.60;;;;;;;13.10;29.85;100450.30;117245;1185;22906;-55
2022/03/27 00:36:34;;;;;;;16.60;10.20;;;;;;;13.15;29.97;100446.48;117355;1184;21865;-59
2022/03/27 00:39:02;;;;;;;16.10;9.40;;;;;;;13.21;29.99;100449.37;117345;1185;23448;-59
2022/03/27 00:41:31;;;;;;;16.90;9.50;;;;;;;13.25;29.89;100449.27;117359;1185;24156;-48
2022/03/27 00:43:59;;;;;;;18.80;9.70;;;;;;;13.28;30.00;100451.84;117366;1184;21896;-48
2022/03/27 00:46:29;;;;;;;17.20;10.60;;;;;;;13.29;30.02;100450.42;117330;1185;23481;-48
2022/03/27 00:48:58;;;;;;;13.80;9.00;;;;;;;13.29;30.05;100448.30;117322;1185;23449;-48
2022/03/27 00:51:27;;;;;;;18.00;9.80;;;;;;;13.28;29.90;100450.27;117356;1185;23471;-49
2022/03/27 00:53:56;;;;;;;19.10;10.10;;;;;;;13.21;30.07;100444.60;117438;1185;22826;-59
2022/03/27 00:56:24;;;;;;;15.90;9.80;;;;;;;13.16;30.03;100445.95;117368;1184;23472;-48
2022/03/27 00:58:53;;;;;;;20.40;10.50;;;;;;;13.08;30.13;100446.65;117343;1185;23468;-48
2022/03/27 01:01:24;;;;;;;14.80;9.10;;;;;;;12.99;30.04;100445.08;117396;1185;21870;-48
2022/03/27 01:03:54;;;;;;;14.40;9.50;;;;;;;12.90;30.17;100436.27;117333;1185;23519;-59
2022/03/27 01:06:35;;;;;;;19.10;10.20;;;;;;;12.80;30.10;100439.65;117364;1185;22960;-59
2022/03/27 01:11:56;;;;;;;14.10;9.40;;;;;;;12.57;30.17;100435.18;117385;1184;23449;-48
2022/03/27 01:14:32;;;;;;;16.90;9.60;;;;;;;12.47;30.38;100429.39;117271;1185;22010;-58
2022/03/27 01:17:08;;;;;;;18.20;9.70;;;;;;;12.36;30.25;100429.77;117144;1183;21855;-48
2022/03/27 01:19:45;;;;;;;17.70;8.60;;;;;;;12.24;30.38;100437.73;117210;1186;21855;-48
2022/03/27 01:22:14;;;;;;;17.40;9.80;;;;;;;12.08;30.58;100461.40;117327;1185;21861;-48
2022/03/27 01:24:44;;;;;;;13.60;8.50;;;;;;;11.91;30.45;100461.85;117318;1188;23554;-48
2022/03/27 01:27:12;;;;;;;17.20;9.80;;;;;;;11.76;30.52;100464.36;117333;1185;24187;-59
2022/03/27 01:29:41;;;;;;;18.80;10.00;;;;;;;11.66;30.50;100462.05;117343;1185;23449;-48
2022/03/27 01:32:11;;;;;;;14.70;9.80;;;;;;;11.65;30.73;100464.37;117128;1188;23471;-58
2022/03/27 01:34:45;;;;;;;15.50;9.50;;;;;;;11.65;30.84;100469.11;117362;1185;23567;-49
2022/03/27 01:37:14;;;;;;;15.20;9.00;;;;;;;11.67;31.02;100466.45;117212;1186;21855;-59
2022/03/27 01:39:42;;;;;;;17.70;9.90;;;;;;;11.71;31.27;100471.83;117311;1185;23016;-59
2022/03/27 01:42:12;;;;;;;15.40;9.60;;;;;;;11.79;31.27;100476.99;117291;1185;24159;-59
2022/03/27 01:44:40;;;;;;;17.90;9.30;;;;;;;11.86;31.39;100480.38;117317;1185;21853;-49
2022/03/27 01:47:09;;;;;;;14.40;10.00;;;;;;;11.96;31.60;100488.31;117322;1185;23481;-48
2022/03/27 01:49:37;;;;;;;19.20;10.50;;;;;;;12.04;31.69;100493.32;117307;1185;21907;-49
2022/03/27 01:52:06;;;;;;;14.20;9.50;;;;;;;12.11;31.84;100499.02;117076;1188;23468;-59
2022/03/27 01:54:43;;;;;;;21.80;11.60;;;;;;;12.19;32.64;100499.05;117302;1185;23446;-56
2022/03/27 01:57:13;;;;;;;24.00;11.30;;;;;;;12.32;34.20;100493.02;117360;1185;21852;-48
2022/03/27 01:59:41;;;;;;;31.70;11.10;;;;;;;12.58;35.99;100503.98;117317;1185;23647;-58
2022/03/27 02:02:10;;;;;;;14.40;8.60;;;;;;;12.80;36.09;100506.04;117409;1185;23500;-58
2022/03/27 02:04:39;;;;;;;12.30;8.60;;;;;;;12.89;35.39;100500.92;117321;1185;23551;-59
2022/03/27 02:07:08;;;;;;;13.70;7.20;;;;;;;12.94;35.13;100512.09;117358;1185;24167;-59
2022/03/27 02:09:45;;;;;;;12.50;6.70;;;;;;;12.96;35.84;100517.88;117242;1185;23656;-59
2022/03/27 02:12:14;;;;;;;10.70;6.30;;;;;;;12.96;35.47;100528.98;117112;1188;24172;-49
2022/03/27 02:14:57;;;;;;;9.30;6.00;;;;;;;12.94;35.05;100532.00;117238;1185;23475;-59
2022/03/27 02:17:29;;;;;;;8.40;5.40;;;;;;;12.94;35.86;100522.69;117306;1185;23472;-49
2022/03/27 02:20:00;;;;;;;8.60;5.20;;;;;;;12.93;36.14;100533.98;117334;1185;22566;-58
2022/03/27 02:22:28;;;;;;;;;;;;;;;12.93;35.62;100535.91;117114;1186;23454;-58
2022/03/27 02:24:57;;;;;;;10.10;4.70;;;;;;;12.91;35.27;100532.05;117352;1185;23471;-59
2022/03/27 02:27:25;;;;;;;8.50;4.70;;;;;;;12.89;35.17;100541.45;117315;1185;23573;-59
2022/03/27 02:29:54;;;;;;;9.90;4.20;;;;;;;12.83;34.99;100549.98;117324;1185;23476;-56
2022/03/27 02:32:22;;;;;;;6.80;4.30;;;;;;;12.76;34.68;100554.18;117370;1182;23576;-49
2022/03/27 02:34:50;;;;;;;8.30;4.10;;;;;;;12.65;34.78;100556.31;117451;1185;23448;-49
2022/03/27 02:37:19;;;;;;;10.20;3.80;;;;;;;12.57;34.58;100563.50;117385;1185;23475;-59
2022/03/27 02:39:48;;;;;;;7.30;4.30;;;;;;;12.49;34.62;100565.05;117339;1185;23587;-49
2022/03/27 02:42:16;;;;;;;6.90;4.10;;;;;;;12.42;34.49;100568.85;117338;1185;24147;-59
2022/03/27 02:44:45;;;;;;;7.00;3.70;;;;;;;12.34;34.56;100572.34;117282;1185;23456;-49
2022/03/27 02:47:13;;;;;;;7.70;3.50;;;;;;;12.25;34.57;100583.04;117237;1186;23474;-49
2022/03/27 02:49:42;;;;;;;11.40;3.90;;;;;;;12.13;34.40;100583.93;117313;1185;23449;-49
2022/03/27 02:52:25;;;;;;;11.20;4.00;;;;;;;11.99;34.61;100593.08;117322;1185;23587;-58
2022/03/27 02:54:54;;;;;;;8.40;3.90;;;;;;;11.87;34.78;100597.14;117380;1185;21854;-60
2022/03/27 02:57:23;;;;;;;8.30;4.00;;;;;;;11.77;35.07;100597.25;117257;1186;24169;-48
2022/03/27 02:59:53;;;;;;;8.50;4.20;;;;;;;11.65;35.06;100601.28;117323;1186;23540;-59
2022/03/27 03:02:21;;;;;;;13.30;5.50;;;;;;;11.54;35.34;100602.12;117164;1186;23445;-50
2022/03/27 03:04:51;;;;;;;8.10;4.20;;;;;;;11.44;34.95;100609.98;117139;1188;22198;-49
2022/03/27 03:07:21;;;;;;;7.20;4.50;;;;;;;11.32;35.05;100610.83;117214;1186;22925;-60
2022/03/27 03:09:50;;;;;;;12.80;4.90;;;;;;;11.22;35.33;100618.15;117174;1186;21962;-49
2022/03/27 03:12:18;;;;;;;11.60;5.70;;;;;;;11.15;35.38;100622.25;117351;1185;21861;-58
2022/03/27 03:14:47;;;;;;;9.50;6.00;;;;;;;11.09;35.37;100624.95;117342;1185;21893;-50
2022/03/27 03:17:15;;;;;;;10.50;6.20;;;;;;;11.01;35.41;100624.85;117380;1185;24145;-58
2022/03/27 03:20:04;;;;;;;11.40;5.70;;;;;;;10.95;35.39;100629.85;117314;1185;24300;-59
2022/03/27 03:22:33;;;;;;;11.40;6.60;;;;;;;10.89;35.57;100639.02;117326;1185;21851;-59
2022/03/27 03:25:02;;;;;;;10.50;6.80;;;;;;;10.82;35.13;100641.36;117361;1185;24146;-49
2022/03/27 03:27:30;;;;;;;11.40;6.70;;;;;;;10.76;35.14;100646.33;117274;1185;21894;-58
2022/03/27 03:29:59;;;;;;;12.70;5.90;;;;;;;10.71;35.12;100647.78;117340;1188;23438;-52
2022/03/27 03:32:28;;;;;;;9.10;5.80;;;;;;;10.66;34.92;100657.13;117350;1185;23449;-49
2022/03/27 03:34:57;;;;;;;14.00;6.00;;;;;;;10.61;34.70;100664.36;117212;1186;23646;-49
2022/03/27 03:37:25;;;;;;;10.70;6.20;;;;;;;10.57;35.14;100667.90;117394;1185;21862;-59
2022/03/27 03:39:55;;;;;;;10.10;6.30;;;;;;;10.54;35.36;100677.21;117320;1185;22707;-49
2022/03/27 03:42:23;;;;;;;10.20;6.50;;;;;;;10.50;35.16;100681.29;117116;1189;23576;-49
2022/03/27 03:44:51;;;;;;;13.20;5.90;;;;;;;10.45;35.07;100687.80;117405;1185;22865;-60
2022/03/27 03:47:20;;;;;;;11.80;6.80;;;;;;;10.41;34.79;100693.98;118028;1182;21852;-49
2022/03/27 03:49:49;;;;;;;13.40;5.90;;;;;;;10.33;34.85;100706.46;117344;1185;21860;-49
2022/03/27 03:52:17;;;;;;;11.90;6.10;;;;;;;10.26;34.83;100714.73;117317;1185;23587;-49
2022/03/27 03:54:46;;;;;;;10.30;5.90;;;;;;;10.22;34.77;100723.35;117371;1186;23449;-49
2022/03/27 03:57:15;;;;;;;10.40;5.90;;;;;;;10.17;34.93;100731.09;117330;1185;22620;-50
2022/03/27 03:59:43;;;;;;;10.70;5.60;;;;;;;10.11;34.75;100737.09;117254;1188;23555;-59
2022/03/27 04:02:14;;;;;;;9.00;5.40;;;;;;;10.03;34.69;100745.36;117123;1187;22928;-54
2022/03/27 04:04:43;;;;;;;9.60;6.20;;;;;;;9.96;34.94;100742.57;117115;1189;21851;-61
2022/03/27 04:07:11;;;;;;;11.80;6.50;;;;;;;9.90;35.02;100749.27;117274;1185;23465;-48
2022/03/27 04:09:40;;;;;;;11.00;5.30;;;;;;;9.86;35.72;100753.14;117199;1186;23482;-59
2022/03/27 04:12:09;;;;;;;13.50;4.60;;;;;;;9.83;36.28;100754.19;117123;1188;21852;-49
2022/03/27 04:14:39;;;;;;;15.30;4.40;;;;;;;9.83;35.85;100762.27;117394;1185;21853;-50
2022/03/27 04:17:27;;;;;;;8.50;3.20;;;;;;;9.84;35.59;100766.98;117314;1185;21849;-49
2022/03/27 04:19:56;;;;;;;12.70;4.00;;;;;;;9.84;35.43;100769.62;117335;1185;24173;-50
2022/03/27 04:22:25;;;;;;;24.70;7.30;;;;;;;9.84;35.31;100777.50;117356;1185;23567;-59
2022/03/27 04:24:53;;;;;;;18.90;6.00;;;;;;;9.83;35.22;100788.89;117326;1185;23572;-49
2022/03/27 04:27:24;;;;;;;10.20;3.90;;;;;;;9.80;35.10;100801.89;117323;1186;23551;-51
2022/03/27 04:29:52;;;;;;;16.00;2.70;;;;;;;9.77;34.80;100818.18;117126;1189;22926;-48
2022/03/27 04:32:21;;;;;;;14.50;2.80;;;;;;;9.72;34.82;100826.42;117343;1185;23573;-48
2022/03/27 04:34:50;;;;;;;15.30;2.60;;;;;;;9.65;34.75;100833.10;117348;1182;21954;-48
2022/03/27 04:37:19;;;;;;;7.30;2.40;;;;;;;9.56;34.67;100841.69;117349;1185;23685;-48
2022/03/27 04:39:47;;;;;;;11.70;2.10;;;;;;;9.45;34.47;100845.55;117328;1185;21861;-60
2022/03/27 04:42:16;;;;;;;8.30;1.90;;;;;;;9.36;34.27;100857.63;117346;1185;21951;-61
2022/03/27 04:44:44;;;;;;;9.60;2.20;;;;;;;9.25;34.03;100860.60;117143;1186;24178;-61
2022/03/27 04:47:12;;;;;;;6.70;2.00;;;;;;;9.15;34.03;100867.24;117343;1182;24162;-49
2022/03/27 04:49:41;;;;;;;7.90;1.90;;;;;;;9.05;33.92;100869.34;117282;1181;23553;-48
2022/03/27 04:52:14;;;;;;;6.90;2.30;;;;;;;9.00;33.74;100875.80;117185;1182;21944;-59
2022/03/27 04:54:43;;;;;;;11.10;2.00;;;;;;;8.95;33.61;100881.56;117120;1183;21852;-48
2022/03/27 04:57:12;;;;;;;13.50;2.60;;;;;;;8.93;33.60;100881.04;117155;1182;23820;-49
2022/03/27 04:59:41;;;;;;;9.20;1.70;;;;;;;8.94;33.69;100892.06;117192;1182;23475;-59
2022/03/27 05:02:10;;;;;;;11.50;2.50;;;;;;;8.97;33.61;100891.38;117266;1185;21872;-59
2022/03/27 05:04:40;;;;;;;11.70;2.10;;;;;;;9.00;33.67;100889.98;117098;1182;22640;-48
2022/03/27 05:07:08;;;;;;;7.40;1.80;;;;;;;9.04;33.50;100889.28;117284;1182;23472;-59
2022/03/27 05:09:37;;;;;;;10.90;2.40;;;;;;;9.08;33.43;100898.21;117336;1185;23551;-49
2022/03/27 05:12:07;;;;;;;7.20;1.60;;;;;;;9.12;33.34;100897.00;117165;1185;23554;-60
2022/03/27 05:14:37;;;;;;;12.80;2.10;;;;;;;9.16;33.25;100899.46;117298;1186;23554;-60
2022/03/27 05:17:05;;;;;;;5.30;1.80;;;;;;;9.21;33.04;100901.23;117301;1185;21854;-49
2022/03/27 05:19:54;;;;;;;7.20;1.40;;;;;;;9.27;32.96;100904.91;117062;1188;21897;-50
2022/03/27 05:22:22;;;;;;;6.30;1.90;;;;;;;9.30;32.70;100902.27;117235;1185;24368;-49
2022/03/27 05:24:52;;;;;;;13.10;1.60;;;;;;;9.33;32.56;100910.00;117296;1185;24171;-60
2022/03/27 05:27:23;;;;;;;5.70;1.70;;;;;;;9.37;32.65;100909.82;117251;1185;22935;-60
2022/03/27 05:29:52;;;;;;;8.70;1.60;;;;;;;9.43;32.65;100904.58;117278;1185;24699;-49
2022/03/27 05:32:20;;;;;;;7.30;1.50;;;;;;;9.48;32.42;100907.21;117364;1185;24172;-59
2022/03/27 05:34:58;;;;;;;11.00;1.60;;;;;;;9.51;32.15;100906.85;117309;1185;23557;-51
2022/03/27 05:37:26;;;;;;;7.20;1.40;;;;;;;9.55;32.20;100916.85;117386;1185;22886;-60
2022/03/27 05:39:55;;;;;;;19.20;2.40;;;;;;;9.61;32.14;100923.85;117324;1185;23381;-60
2022/03/27 05:42:43;;;;;;;13.50;2.30;;;;;;;9.66;31.83;100931.76;117166;1186;21868;-60
2022/03/27 05:45:13;;;;;;;9.10;1.60;;;;;;;9.67;31.87;100934.02;117443;1185;23448;-49
2022/03/27 05:47:42;;;;;;;6.90;1.40;;;;;;;9.68;31.70;100937.36;117340;1185;22826;-60
2022/03/27 05:50:13;;;;;;;64.60;6.80;;;;;;;9.70;31.90;100939.81;117303;1185;22639;-49
2022/03/27 05:52:43;;;;;;;14.20;2.00;;;;;;;9.75;31.50;100940.69;116930;1188;21938;-50
2022/03/27 05:55:12;;;;;;;9.20;1.80;;;;;;;9.75;31.47;100942.09;117374;1185;23576;-60
2022/03/27 05:57:42;;;;;;;12.40;1.90;;;;;;;9.78;31.65;100948.58;117150;1187;22980;-51
2022/03/27 06:00:12;;;;;;;12.30;2.90;;;;;;;9.88;31.66;100947.88;117250;1185;24185;-61
2022/03/27 06:02:41;;;;;;;9.90;1.90;;;;;;;9.94;31.55;100944.72;117247;1185;21857;-50
2022/03/27 06:05:11;;;;;;;;;;;;;;;10.00;31.55;100942.59;117023;1188;21847;-59
2022/03/27 06:07:50;;;;;;;10.70;2.20;;;;;;;10.05;31.33;100951.89;117023;1188;23561;-59
2022/03/27 06:10:22;;;;;;;18.90;3.80;;;;;;;10.10;31.28;100953.29;117270;1185;23456;-49
2022/03/27 06:12:51;;;;;;;8.00;1.70;;;;;;;10.18;31.45;100948.71;117266;1185;21866;-49
2022/03/27 06:15:20;;;;;;;8.30;1.60;;;;;;;10.26;31.20;100954.48;117362;1185;21841;-50
2022/03/27 06:17:50;;;;;;;13.20;3.10;;;;;;;10.31;31.13;100952.73;117268;1186;23710;-59
2022/03/27 06:20:20;;;;;;;15.70;1.50;;;;;;;10.34;30.99;100958.52;117294;1185;21865;-60
2022/03/27 06:22:49;;;;;;;12.30;1.80;;;;;;;10.37;30.94;100963.60;117414;1185;23939;-60
2022/03/27 06:25:20;;;;;;;14.10;2.10;;;;;;;10.40;30.40;100961.34;118205;1183;24149;-50
2022/03/27 06:27:49;;;;;;;11.50;2.30;;;;;;;10.39;30.69;100956.23;117207;1187;23556;-49
2022/03/27 06:30:19;;;;;;;14.40;2.10;;;;;;;10.51;30.89;100962.71;117094;1187;21902;-60
2022/03/27 06:32:48;;;;;;;11.90;1.70;;;;;;;10.59;30.71;100959.19;116922;1188;23461;-60
2022/03/27 06:35:17;;;;;;;12.50;2.70;;;;;;;10.67;30.74;100955.13;117220;1185;21845;-59
2022/03/27 06:37:48;;;;;;;8.40;1.80;;;;;;;10.77;30.44;100958.95;117043;1188;21896;-49
2022/03/27 06:40:16;;;;;;;9.50;1.70;;;;;;;10.82;30.57;100962.60;117194;1186;21849;-60
2022/03/27 06:42:45;;;;;;;11.30;1.90;;;;;;;10.83;30.71;100968.76;118340;1187;23529;-50
2022/03/27 06:45:15;;;;;;;18.20;2.80;;;;;;;10.78;30.89;100976.85;117186;1185;22929;-60
2022/03/27 06:47:45;;;;;;;11.40;1.90;;;;;;;10.70;30.21;100973.02;117158;1186;21851;-60
2022/03/27 06:50:14;;;;;;;15.00;1.70;;;;;;;10.64;29.71;100979.88;117126;1188;21987;-61
2022/03/27 06:52:44;;;;;;;29.90;3.90;;;;;;;10.63;29.68;100989.88;117285;1185;21851;-60
2022/03/27 06:55:12;;;;;;;12.40;2.40;;;;;;;10.70;29.95;100991.62;117222;1186;22926;-50
2022/03/27 06:57:42;;;;;;;14.10;2.60;;;;;;;10.86;30.15;100997.89;119089;1187;23620;-50
2022/03/27 07:03:03;;;;;;;11.70;2.20;;;;;;;11.17;29.59;101003.91;117261;1185;21851;-62
2022/03/27 07:05:36;;;;;;;9.10;2.00;;;;;;;11.06;29.25;101007.30;117357;1185;23685;-50
2022/03/27 07:08:11;;;;;;;5.30;2.00;;;;;;;10.95;29.36;101007.86;117327;1185;23570;-60
2022/03/27 07:10:59;;;;;;;7.70;1.70;;;;;;;10.91;29.48;101014.20;117233;1186;22284;-61
2022/03/27 07:13:28;;;;;;;10.30;1.60;;;;;;;11.03;29.69;101016.26;117199;1186;25368;-60
2022/03/27 07:16:16;;;;;;;6.70;1.60;;;;;;;11.12;29.77;101019.55;116950;1182;23453;-59
2022/03/27 07:18:49;;;;;;;8.30;1.70;;;;;;;11.15;29.45;101020.07;117317;1181;23017;-49
2022/03/27 07:21:28;;;;;;;8.60;1.90;;;;;;;11.25;29.22;101030.92;117022;1182;22591;-60
2022/03/27 07:23:58;;;;;;;8.70;2.00;;;;;;;11.32;29.37;101034.92;117010;1182;21843;-50
2022/03/27 07:26:26;;;;;;;6.80;1.90;;;;;;;11.35;28.87;101022.42;117225;1182;21854;-50
2022/03/27 07:28:57;;;;;;;16.90;2.10;;;;;;;11.43;28.65;101020.30;116976;1183;21919;-49
2022/03/27 07:31:26;;;;;;;8.90;2.00;;;;;;;11.44;28.85;101026.09;117125;1182;22924;-50
2022/03/27 07:33:55;;;;;;;5.90;1.40;;;;;;;11.42;28.37;101032.25;116886;1185;21855;-50
2022/03/27 07:36:24;;;;;;;19.50;2.70;;;;;;;11.43;28.39;101032.07;117201;1182;21850;-51
2022/03/27 07:38:53;;;;;;;7.00;1.40;;;;;;;11.48;27.91;101034.52;117169;1181;21861;-60
2022/03/27 07:41:22;;;;;;;13.10;2.30;;;;;;;11.53;28.36;101035.35;117142;1182;21861;-60
2022/03/27 07:43:50;;;;;;;12.80;2.00;;;;;;;11.61;28.01;101042.50;117138;1182;23922;-51
2022/03/27 07:46:20;;;;;;;17.50;2.30;;;;;;;11.66;27.78;101040.90;117202;1182;22615;-50
2022/03/27 07:48:49;;;;;;;14.00;2.10;;;;;;;11.71;27.58;101039.81;117183;1182;23711;-50
2022/03/27 07:51:23;;;;;;;4.30;1.20;;;;;;;11.71;27.64;101043.48;117110;1188;21861;-60
2022/03/27 07:53:54;;;;;;;9.20;1.60;;;;;;;11.83;28.36;101052.56;117171;1186;23553;-49
2022/03/27 07:56:23;;;;;;;14.30;3.20;;;;;;;12.02;28.17;101054.58;117198;1186;22606;-60
2022/03/27 07:58:52;;;;;;;6.90;2.30;;;;;;;12.13;28.17;101050.61;117033;1182;23579;-48
2022/03/27 08:01:22;;;;;;;8.80;2.50;;;;;;;12.20;27.91;101051.80;117172;1182;21855;-49
2022/03/27 08:03:56;;;;;;;14.30;2.30;;;;;;;12.28;28.09;101057.55;117280;1186;22003;-60
2022/03/27 08:06:25;;;;;;;8.70;2.00;;;;;;;12.23;27.13;101055.64;117090;1186;21850;-58
2022/03/27 08:08:55;;;;;;;10.70;2.10;;;;;;;12.04;27.58;101058.79;118645;1185;23445;-60
2022/03/27 08:11:24;;;;;;;9.80;1.80;;;;;;;11.97;27.77;101049.30;117173;1186;23586;-51
2022/03/27 08:13:52;;;;;;;9.50;2.20;;;;;;;11.98;27.49;101047.71;117136;1181;22927;-49
2022/03/27 08:16:40;;;;;;;10.20;2.00;;;;;;;12.06;27.88;101045.92;117146;1188;22580;-49
2022/03/27 08:19:09;;;;;;;13.50;2.40;;;;;;;12.29;27.71;101050.31;117165;1186;23548;-61
2022/03/27 08:21:48;;;;;;;20.60;3.00;;;;;;;12.41;27.21;101052.66;117292;1185;23548;-49
2022/03/27 08:24:17;;;;;;;8.10;1.90;;;;;;;12.48;27.49;101051.90;117324;1185;23551;-60
2022/03/27 08:29:48;;;;;;;9.80;2.20;;;;;;;12.56;26.98;101047.42;117170;1186;23014;-60
2022/03/27 08:32:18;;;;;;;15.90;2.60;;;;;;;12.39;26.81;101058.14;117285;1185;22917;-61
2022/03/27 08:34:47;;;;;;;5.70;1.70;;;;;;;12.38;26.71;101053.22;117117;1182;23576;-49
2022/03/27 08:37:17;;;;;;;8.00;1.80;;;;;;;12.39;26.95;101059.55;117162;1182;21855;-59
2022/03/27 08:39:45;;;;;;;14.90;2.70;;;;;;;12.43;26.87;101057.75;117301;1185;22936;-49
2022/03/27 08:42:16;;;;;;;6.80;1.50;;;;;;;12.51;26.73;101058.91;117320;1184;21974;-49
2022/03/27 08:44:45;;;;;;;10.10;2.60;;;;;;;12.74;27.33;101050.59;117332;1186;23448;-49
2022/03/27 08:47:26;;;;;;;7.80;2.00;;;;;;;13.04;27.72;101050.60;117231;1186;21851;-49
2022/03/27 08:50:00;;;;;;;28.50;2.70;;;;;;;13.33;26.97;101045.84;117340;1185;21839;-60
2022/03/27 08:52:45;;;;;;;13.00;2.10;;;;;;;13.42;27.02;101057.23;117365;1184;23472;-50
2022/03/27 08:55:52;;;;;;;7.00;1.30;;;;;;;13.38;27.04;101056.91;117335;1185;23713;-59
2022/03/27 08:58:21;;;;;;;8.40;1.60;;;;;;;13.02;26.47;101061.38;117280;1182;23563;-49
2022/03/27 09:00:51;;;;;;;7.20;1.90;;;;;;;12.83;26.17;101068.98;117184;1182;21858;-50
2022/03/27 09:03:21;;;;;;;9.60;2.00;;;;;;;12.72;26.35;101076.32;117255;1182;23464;-60
2022/03/27 09:05:51;;;;;;;12.50;2.00;;;;;;;12.68;26.28;101064.21;117332;1185;22611;-49
2022/03/27 09:08:21;;;;;;;10.10;2.50;;;;;;;12.71;26.72;101078.80;117293;1185;23624;-51
2022/03/27 09:10:56;;;;;;;15.40;1.90;;;;;;;12.77;26.41;101074.33;117315;1185;21852;-59
2022/03/27 09:13:25;;;;;;;8.50;1.50;;;;;;;12.69;26.43;101080.58;117227;1185;21864;-50
2022/03/27 09:16:04;;;;;;;11.20;2.10;;;;;;;12.71;26.54;101078.80;117165;1186;21893;-50
2022/03/27 09:18:53;;;;;;;10.10;1.80;;;;;;;12.85;26.24;101073.88;117304;1185;21858;-50
2022/03/27 09:21:24;;;;;;;16.00;5.80;;;;;;;12.97;26.78;101065.66;117134;1185;23579;-60
2022/03/27 09:24:00;;;;;;;10.50;2.40;;;;;;;13.23;26.93;101061.12;117240;1186;22924;-60
2022/03/27 09:26:31;;;;;;;7.90;1.60;;;;;;;13.49;26.32;101059.06;117286;1186;21850;-60
2022/03/27 09:29:10;;;;;;;9.30;2.10;;;;;;;13.59;26.41;101056.82;117321;1185;23906;-51
2022/03/27 09:31:39;;;;;;;5.10;1.40;;;;;;;13.66;26.80;101062.38;117227;1181;24889;-60
2022/03/27 09:34:08;;;;;;;9.50;2.00;;;;;;;13.59;26.66;101049.42;117214;1183;22873;-60
2022/03/27 09:36:42;;;;;;;13.40;1.80;;;;;;;13.57;26.53;101044.33;117357;1185;21938;-51
2022/03/27 09:39:22;;;;;;;5.10;1.40;;;;;;;13.65;25.84;101056.57;117307;1184;23692;-60
2022/03/27 09:41:52;;;;;;;6.80;1.90;;;;;;;13.74;26.10;101053.08;117137;1186;21891;-61
2022/03/27 09:44:31;;;;;;;8.10;1.50;;;;;;;13.78;25.33;101059.20;117353;1185;23627;-51
2022/03/27 09:47:04;;;;;;;7.80;1.80;;;;;;;13.61;25.34;101052.92;117339;1186;21843;-58
2022/03/27 09:49:35;;;;;;;7.10;1.60;;;;;;;13.52;25.91;101063.42;117307;1186;22935;-59
2022/03/27 09:52:11;;;;;;;8.50;1.70;;;;;;;13.69;26.13;101061.10;117305;1185;23548;-59
2022/03/27 09:54:54;;;;;;;9.10;1.40;;;;;;;13.82;25.66;101060.19;117290;1185;21864;-59
2022/03/27 09:57:37;;;;;;;4.80;1.50;;;;;;;13.93;25.73;101063.20;117361;1184;22507;-58
2022/03/27 10:00:13;;;;;;;10.30;1.90;;;;;;;14.08;25.49;101062.80;118119;1185;22901;-59
2022/03/27 10:02:43;;;;;;;8.10;2.30;;;;;;;14.08;24.91;101055.73;117639;1185;23830;-49
2022/03/27 10:05:13;;;;;;;12.80;3.00;;;;;;;13.88;25.30;101074.21;117178;1185;21838;-60
2022/03/27 10:07:44;;;;;;;6.50;1.50;;;;;;;13.74;25.08;101065.61;117230;1182;21874;-50
2022/03/27 10:10:17;;;;;;;7.90;1.70;;;;;;;13.51;24.93;101052.70;117266;1182;23799;-60
2022/03/27 10:12:48;;;;;;;8.90;1.70;;;;;;;13.42;24.91;101060.75;117376;1186;22937;-60
2022/03/27 10:15:20;;;;;;;15.30;1.90;;;;;;;13.42;24.97;101053.88;117342;1186;22999;-49
2022/03/27 10:18:03;;;;;;;11.30;1.80;;;;;;;13.41;25.43;101070.09;117311;1181;23439;-51
2022/03/27 10:20:34;;;;;;;14.00;1.90;;;;;;;13.44;25.14;101067.23;117345;1185;21984;-50
2022/03/27 10:23:22;;;;;;;8.70;1.70;;;;;;;13.65;24.96;101056.55;117263;1185;24169;-50
2022/03/27 10:25:56;;;;;;;6.40;1.40;;;;;;;13.81;24.31;101060.91;117337;1186;23059;-50
2022/03/27 10:28:25;;;;;;;9.40;2.10;;;;;;;13.85;24.20;101065.98;117247;1185;23484;-61
2022/03/27 10:30:54;;;;;;;8.50;1.80;;;;;;;13.90;24.91;101038.02;117010;1188;24162;-61
2022/03/27 10:33:25;;;;;;;10.90;1.40;;;;;;;14.04;25.11;101047.85;117252;1177;23451;-61
2022/03/27 10:36:19;;;;;;;6.10;1.60;;;;;;;14.23;25.16;101047.02;117120;1188;21866;-51
2022/03/27 10:39:14;;;;;;;4.80;1.60;;;;;;;14.57;24.38;101056.85;117241;1189;21892;-51
2022/03/27 10:41:51;;;;;;;6.40;1.50;;;;;;;14.76;24.81;101048.77;117232;1185;24702;-61
2022/03/27 10:44:35;;;;;;;6.50;1.80;;;;;;;14.83;24.72;101051.10;119300;1185;21777;-53
2022/03/27 10:47:16;;;;;;;6.10;1.70;;;;;;;14.81;24.41;101059.27;117052;1182;23002;-59
2022/03/27 10:50:01;;;;;;;8.20;1.50;;;;;;;14.95;24.42;101053.88;117200;1182;22116;-60
2022/03/27 10:52:36;;;;;;;14.60;2.60;;;;;;;15.06;24.62;101061.24;117218;1189;23514;-61
2022/03/27 10:55:11;;;;;;;6.00;1.60;;;;;;;15.12;23.88;101064.14;117221;1185;21884;-58
2022/03/27 10:57:45;;;;;;;6.80;1.50;;;;;;;14.94;23.41;101055.66;117235;1186;21870;-51
2022/03/27 11:00:14;;;;;;;10.60;2.00;;;;;;;14.81;23.79;101054.84;117263;1186;22909;-60
2022/03/27 11:02:47;;;;;;;13.00;2.20;;;;;;;14.89;23.79;101054.17;117194;1186;23469;-60
2022/03/27 11:05:36;;;;;;;9.50;2.10;;;;;;;14.88;22.92;101061.08;117071;1187;23552;-60
2022/03/27 11:08:17;;;;;;;8.40;1.60;;;;;;;14.73;23.10;101049.54;117319;1186;23642;-60
2022/03/27 11:11:35;;;;;;;12.20;1.50;;;;;;;14.53;22.76;101040.50;117251;1186;21850;-51
2022/03/27 11:14:04;;;;;;;6.30;1.20;;;;;;;14.44;23.48;101057.25;117335;1186;21861;-60
2022/03/27 11:16:36;;;;;;;7.40;1.50;;;;;;;14.55;23.36;101052.98;117264;1186;24320;-60
2022/03/27 11:19:43;;;;;;;10.50;1.50;;;;;;;14.72;22.96;101081.70;117295;1186;21964;-60
2022/03/27 11:22:44;;;;;;;9.20;1.40;;;;;;;14.73;23.04;101075.85;117295;1186;22643;-51
2022/03/27 11:25:32;;;;;;;7.20;1.70;;;;;;;14.82;22.98;101071.61;117234;1184;22067;-60
2022/03/27 11:28:06;;;;;;;7.00;1.40;;;;;;;14.82;22.92;101092.11;117293;1188;21843;-52
2022/03/27 11:30:48;;;;;;;8.10;1.60;;;;;;;14.74;22.75;101098.63;117321;1187;22909;-60
2022/03/27 11:33:22;;;;;;;4.20;1.10;;;;;;;14.71;23.31;101091.77;117220;1186;23579;-52
2022/03/27 11:36:09;;;;;;;8.20;1.20;;;;;;;14.60;23.25;101082.94;117165;1183;21976;-52
2022/03/27 11:38:53;;;;;;;8.20;1.30;;;;;;;14.55;22.81;101075.44;117199;1183;21906;-52
2022/03/27 11:41:32;;;;;;;4.60;1.20;;;;;;;14.36;22.60;101076.98;117242;1186;21911;-51
2022/03/27 11:44:22;;;;;;;5.50;1.60;;;;;;;14.27;22.84;101076.77;117261;1186;22960;-51
2022/03/27 11:46:54;;;;;;;12.10;2.00;;;;;;;14.41;23.13;101084.66;117271;1186;21864;-51